首页
METAR-TAF:

METAR-TAF

机场 :

波德戈里察國際機場

波德戈里察, 蒙特內哥羅

纬度: 42-26N, 经度: 019-17E, 海拔: 53米

当前天气观测

该预报发布于25分钟前的04:30 UTC
风速2节,风向多变
温度 7°C
湿度 87%
气压 1015 hPa
能見度: 7000
散云层高于5000英尺
阴天层高于8000英尺

METAR: LYPG 290430Z VRB02KT 7000 SCT050 OVC080 07/05 Q1015 NOSIG

时间: 05:55 (04:55 UTC)

预报

该预报发布于5小时和55分钟前的23:00 UTC
预报有效从29日的 00点(UTC)到 29日的 24点(UTC)
风速5节,风向北转东北
能見度: 6000
散云层高于4000英尺
阴天层高于8000英尺
几率 40% :
短暂存在
从 29日的 03点(UTC)到 29日的 14点(UTC)
能見度: 5000
小雨, 轻雾
几率 30% :
短暂存在
从 29日的 03点(UTC)到 29日的 09点(UTC)
能見度: 1500
成为
从 29日的 17点(UTC)到 29日的 19点(UTC)
风速15节,风向北转东北,有时为25节阵风

TAF: LYPG 282300Z 2900/2924 02005KT 6000 SCT040 OVC080 TX13/2913Z TN04/2906Z PROB40 TEMPO 2903/2914 5000 -RA BR PROB30 TEMPO 2903/2909 1500 BECMG 2917/2919 02015G25KT

超过4000个机场的气象观测和天气预报(METAR&TAF报告)。

可查询的气象台以黄色和红色小点在地图上表示。

将鼠标移到小点上方,可查看气象台名称。

然后点击查看天气观测和预报。

如需切换地图:点击带黑十字的绿色按钮放大地图;点击带横线的绿色按钮缩小地图;或者点击绿色箭头查看邻近地区的地图。


METAR-TAF: